createdAt,value
2022-08-05T00:04:31.199Z,95372.28
2022-08-05T00:09:37.101Z,95368.56
2022-08-05T00:14:41.078Z,95361.91
2022-08-05T00:19:45.767Z,95363.78
2022-08-05T00:25:08.367Z,95356.50
2022-08-05T00:30:16.082Z,95351.25
2022-08-05T00:35:20.318Z,95352.25
2022-08-05T00:40:28.453Z,95356.94
2022-08-05T00:45:38.537Z,95350.88
2022-08-05T00:50:46.810Z,95345.59
2022-08-05T00:55:49.980Z,95346.56
2022-08-05T01:00:53.546Z,95350.19
2022-08-05T01:05:58.073Z,95350.72
2022-08-05T01:11:03.098Z,95341.56
2022-08-05T01:16:07.835Z,95348.19
2022-08-05T01:21:12.338Z,95342.34
2022-08-05T01:26:29.058Z,95345.09
2022-08-05T01:31:48.188Z,95345.25
2022-08-05T01:37:11.391Z,95343.22
2022-08-05T01:42:30.773Z,95343.97
2022-08-05T01:47:39.201Z,95331.06
2022-08-05T01:52:43.725Z,95339.09
2022-08-05T01:58:15.175Z,95341.56
2022-08-05T02:03:16.350Z,95343.06
2022-08-05T02:08:30.741Z,95346.28
2022-08-05T02:13:36.590Z,95345.19
2022-08-05T02:18:57.614Z,95346.19
2022-08-05T02:24:01.238Z,95345.34
2022-08-05T02:29:05.728Z,95348.50
2022-08-05T02:34:24.745Z,95338.09
2022-08-05T02:39:35.043Z,95337.13
2022-08-05T02:44:45.631Z,95345.06
2022-08-05T02:49:50.040Z,95344.53
2022-08-05T02:54:54.105Z,95344.72
2022-08-05T02:59:59.446Z,95352.41
2022-08-05T03:05:03.675Z,95334.31
2022-08-05T03:10:07.380Z,95338.25
2022-08-05T03:15:12.467Z,95342.03
2022-08-05T03:20:16.327Z,95345.75
2022-08-05T03:25:33.617Z,95339.06
2022-08-05T03:30:43.135Z,95338.97
2022-08-05T03:35:46.726Z,95333.38
2022-08-05T03:40:50.512Z,95336.28
2022-08-05T03:45:57.513Z,95325.38
2022-08-05T03:52:37.258Z,95324.56
2022-08-05T03:56:27.807Z,95328.47
2022-08-05T04:01:36.568Z,95329.69
2022-08-05T04:06:47.464Z,95332.16
2022-08-05T04:11:52.776Z,95332.44
2022-08-05T04:16:56.399Z,95334.41
2022-08-05T04:22:08.714Z,95330.53
2022-08-05T04:27:15.586Z,95346.22
2022-08-05T04:32:20.142Z,95382.53
2022-08-05T04:38:02.663Z,95403.69
2022-08-05T04:42:59.161Z,95393.47
2022-08-05T04:48:03.885Z,95398.72
2022-08-05T04:53:08.500Z,95397.19
2022-08-05T04:58:12.433Z,95394.19
2022-08-05T05:03:20.308Z,95402.78
2022-08-05T05:08:29.870Z,95402.03
2022-08-05T05:13:43.207Z,95402.16
2022-08-05T05:19:08.872Z,95404.56
2022-08-05T05:24:11.352Z,95414.31
2022-08-05T05:29:15.861Z,95409.63
2022-08-05T05:34:26.577Z,95402.44
2022-08-05T05:39:31.736Z,95411.06
2022-08-05T05:44:44.389Z,95416.50
2022-08-05T05:49:56.530Z,95420.75
2022-08-05T05:55:00.723Z,95416.22
2022-08-05T06:00:05.539Z,95412.50
2022-08-05T06:05:16.948Z,95416.13
2022-08-05T06:10:21.553Z,95413.09
2022-08-05T06:16:27.331Z,95426.63
2022-08-05T06:20:54.184Z,95423.44
2022-08-05T06:26:12.684Z,95414.63
2022-08-05T06:31:21.974Z,95409.25
2022-08-05T06:36:26.145Z,95417.22
2022-08-05T06:41:29.838Z,95413.31
2022-08-05T06:46:38.005Z,95427.53
2022-08-05T06:51:41.201Z,95429.16
2022-08-05T06:56:54.871Z,95434.69
2022-08-05T07:02:08.798Z,95435.75
2022-08-05T07:07:12.377Z,95430.31
2022-08-05T07:12:32.734Z,95440.97
2022-08-05T07:18:00.931Z,95446.09
2022-08-05T07:23:00.108Z,95465.44
2022-08-05T07:28:09.680Z,95465.41
2022-08-05T07:33:17.218Z,95489.81
2022-08-05T07:38:32.028Z,95486.56
2022-08-05T07:43:38.212Z,95497.63
2022-08-05T07:49:02.247Z,95504.06
2022-08-05T07:54:05.122Z,95511.97
2022-08-05T07:59:08.977Z,95523.38
2022-08-05T08:04:13.286Z,95533.13
2022-08-05T08:09:19.673Z,95535.56
2022-08-05T08:14:22.980Z,95545.19
2022-08-05T08:20:10.437Z,95542.00
2022-08-05T08:24:51.961Z,95562.50
2022-08-05T08:30:05.281Z,95574.38
2022-08-05T08:35:19.306Z,95573.56
2022-08-05T08:40:23.336Z,95580.59
2022-08-05T08:45:29.780Z,95592.75
2022-08-05T08:51:03.870Z,95590.81
2022-08-05T08:56:04.116Z,95608.84
2022-08-05T09:01:15.467Z,95609.25
2022-08-05T09:06:21.393Z,95609.44
2022-08-05T09:11:52.110Z,95610.22
2022-08-05T09:16:51.158Z,95623.34
2022-08-05T09:22:22.849Z,95626.81
2022-08-05T09:27:18.831Z,95617.41
2022-08-05T09:32:46.752Z,95624.66
2022-08-05T09:38:12.792Z,95632.16
2022-08-05T09:43:13.301Z,95635.19
2022-08-05T09:48:17.086Z,95630.44
2022-08-05T09:53:26.027Z,95631.00
2022-08-05T09:58:47.606Z,95630.44
2022-08-05T10:03:58.818Z,95625.72
2022-08-05T10:09:03.159Z,95631.28
2022-08-05T10:14:10.162Z,95625.03
2022-08-05T10:19:14.748Z,95646.41
2022-08-05T10:24:18.663Z,95637.69
2022-08-05T10:29:23.517Z,95640.09
2022-08-05T10:34:31.107Z,95654.31
2022-08-05T10:39:59.311Z,95645.56
2022-08-05T10:44:58.591Z,95634.13
2022-08-05T10:50:33.286Z,95646.38
2022-08-05T10:55:25.374Z,95647.97
2022-08-05T11:00:28.674Z,95640.69
2022-08-05T11:05:33.071Z,95658.63
2022-08-05T11:10:37.623Z,95633.06
2022-08-05T11:16:01.079Z,95632.47
2022-08-05T11:21:11.405Z,95624.19
2022-08-05T11:26:15.722Z,95624.19
2022-08-05T11:31:57.638Z,95607.84
2022-08-05T11:36:56.852Z,95621.75
2022-08-05T11:42:04.533Z,95616.41
2022-08-05T11:47:10.892Z,95614.72
2022-08-05T11:52:18.331Z,95613.28
2022-08-05T11:57:27.118Z,95608.44
2022-08-05T12:02:33.446Z,95601.22
2022-08-05T12:08:08.072Z,95600.00
2022-08-05T12:13:02.996Z,95590.75
2022-08-05T12:18:11.130Z,95596.88
2022-08-05T12:23:15.452Z,95586.13
2022-08-05T12:28:18.717Z,95572.09
2022-08-05T12:33:27.362Z,95584.47
2022-08-05T12:38:31.505Z,95580.19
2022-08-05T12:43:35.002Z,95568.03
2022-08-05T12:48:42.996Z,95568.81
2022-08-05T12:53:55.742Z,95560.00
2022-08-05T12:59:02.836Z,95551.41
2022-08-05T13:04:07.774Z,95548.91
2022-08-05T13:09:13.875Z,95541.50
2022-08-05T13:14:19.370Z,95542.19
2022-08-05T13:19:24.539Z,95556.88
2022-08-05T13:24:51.240Z,95537.28
2022-08-05T13:29:59.361Z,95545.28
2022-08-05T13:35:15.414Z,95533.81
2022-08-05T13:40:48.114Z,95524.19
2022-08-05T13:45:50.854Z,95539.38
2022-08-05T13:50:54.315Z,95542.31
2022-08-05T13:56:01.955Z,95524.72
2022-08-05T14:01:06.162Z,95525.69
2022-08-05T14:06:25.930Z,95519.19
2022-08-05T14:11:31.254Z,95516.13
2022-08-05T14:16:34.634Z,95507.41
2022-08-05T14:22:10.108Z,95494.41
2022-08-05T14:27:17.415Z,95495.00
2022-08-05T14:32:26.822Z,95488.38
2022-08-05T14:37:45.540Z,95479.66
2022-08-05T14:42:51.914Z,95465.38
2022-08-05T14:48:05.335Z,95439.72
2022-08-05T14:53:12.454Z,95440.69
2022-08-05T14:58:17.380Z,95433.38
2022-08-05T15:03:23.207Z,95420.63
2022-08-05T15:08:57.552Z,95436.31
2022-08-05T15:13:50.678Z,95443.41
2022-08-05T15:18:54.042Z,95450.44
2022-08-05T15:23:57.714Z,95461.91
2022-08-05T15:29:02.532Z,95451.44
2022-08-05T15:34:31.952Z,95461.44
2022-08-05T15:41:04.132Z,95470.47
2022-08-05T15:44:55.202Z,95466.63
2022-08-05T15:49:59.561Z,95467.25
2022-08-05T15:55:03.575Z,95460.25
2022-08-05T16:00:07.315Z,95463.06
2022-08-05T16:05:11.174Z,95457.00
2022-08-05T16:10:14.879Z,95461.09
2022-08-05T16:15:20.057Z,95470.16
2022-08-05T16:20:23.805Z,95464.25
2022-08-05T16:25:33.925Z,95463.72
2022-08-05T16:30:37.784Z,95460.47
2022-08-05T16:35:42.232Z,95469.00
2022-08-05T16:40:55.280Z,95465.69
2022-08-05T16:46:23.868Z,95472.00
2022-08-05T16:51:30.833Z,95474.88
2022-08-05T16:56:46.762Z,95474.16
2022-08-05T17:01:56.463Z,95481.00
2022-08-05T17:07:03.179Z,95476.25
2022-08-05T17:12:08.444Z,95481.56
2022-08-05T17:17:16.574Z,95486.00
2022-08-05T17:22:25.429Z,95473.34
2022-08-05T17:27:33.939Z,95478.50
2022-08-05T17:32:38.202Z,95485.25
2022-08-05T17:37:48.383Z,95476.59
2022-08-05T17:42:53.019Z,95474.59
2022-08-05T17:47:57.246Z,95483.41
2022-08-05T17:53:01.187Z,95487.47
2022-08-05T17:58:05.158Z,95496.63
2022-08-05T18:03:10.826Z,95493.06
2022-08-05T18:08:15.757Z,95498.63
2022-08-05T18:13:19.591Z,95504.16
2022-08-05T18:18:26.357Z,95501.81
2022-08-05T18:23:31.692Z,95504.56
2022-08-05T18:28:49.643Z,95503.75
2022-08-05T18:33:53.232Z,95510.41
2022-08-05T18:39:00.425Z,95514.75
2022-08-05T18:44:05.780Z,95515.91
2022-08-05T18:49:30.560Z,95517.09
2022-08-05T18:54:34.868Z,95517.81
2022-08-05T18:59:42.840Z,95519.78
2022-08-05T19:06:06.289Z,95531.97
2022-08-05T19:10:27.953Z,95573.28
2022-08-05T19:15:59.073Z,95597.69
2022-08-05T19:20:56.215Z,95630.38
2022-08-05T19:26:02.029Z,95674.75
2022-08-05T19:31:06.516Z,95716.03
2022-08-05T19:36:11.446Z,95745.38
2022-08-05T19:41:22.159Z,95790.72
2022-08-05T19:46:43.658Z,95795.06
2022-08-05T19:52:04.299Z,95787.47
2022-08-05T19:57:10.323Z,95747.41
2022-08-05T20:02:13.615Z,95745.88
2022-08-05T20:07:47.951Z,95733.59
2022-08-05T20:12:46.380Z,95728.41
2022-08-05T20:17:52.586Z,95720.78
2022-08-05T20:22:56.258Z,95718.94
2022-08-05T20:28:01.673Z,95706.88
2022-08-05T20:33:05.541Z,95702.09
2022-08-05T20:38:09.384Z,95708.47
2022-08-05T20:43:57.430Z,95758.41
2022-08-05T20:48:42.221Z,95780.66
2022-08-05T20:53:56.343Z,95812.13
2022-08-05T20:59:14.097Z,95834.69
2022-08-05T21:04:22.682Z,95844.47
2022-08-05T21:09:30.679Z,95860.69
2022-08-05T21:14:37.323Z,95878.53
2022-08-05T21:19:46.694Z,95874.38
2022-08-05T21:24:52.038Z,95885.75
2022-08-05T21:29:55.966Z,95889.59
2022-08-05T21:35:17.887Z,95902.22
2022-08-05T21:40:21.808Z,95921.50
2022-08-05T21:45:56.918Z,95921.00
2022-08-05T21:50:54.193Z,95960.41
2022-08-05T21:56:09.723Z,95959.91
2022-08-05T22:01:24.046Z,95970.31
2022-08-05T22:06:35.660Z,95971.25
2022-08-05T22:11:42.976Z,95960.50
2022-08-05T22:16:51.536Z,95944.50
2022-08-05T22:21:56.067Z,95941.66
2022-08-05T22:27:17.710Z,95939.75
2022-08-05T22:32:21.353Z,95960.41
2022-08-05T22:37:58.051Z,95984.56
2022-08-05T22:42:53.098Z,95982.50
2022-08-05T22:48:01.035Z,95976.56
2022-08-05T22:53:09.914Z,95990.34
2022-08-05T22:58:14.634Z,95998.41
2022-08-05T23:03:18.410Z,96009.75
2022-08-05T23:08:41.563Z,96005.09
2022-08-05T23:13:45.178Z,96003.66
2022-08-05T23:18:55.819Z,96015.00
2022-08-05T23:23:59.081Z,96018.34
2022-08-05T23:29:02.605Z,96010.34
2022-08-05T23:34:08.157Z,96018.31
2022-08-05T23:39:16.571Z,96012.66
2022-08-05T23:44:25.023Z,96014.47
2022-08-05T23:49:35.702Z,96034.91
2022-08-05T23:54:39.454Z,96039.97
